createdAt,value
2022-10-30T00:00:52.939Z,15.20
2022-10-30T00:03:23.193Z,15.40
2022-10-30T00:05:54.461Z,15.60
2022-10-30T00:08:26.999Z,15.50
2022-10-30T00:11:00.327Z,15.50
2022-10-30T00:13:33.420Z,15.30
2022-10-30T00:16:08.031Z,15.50
2022-10-30T00:18:39.097Z,15.50
2022-10-30T00:21:11.629Z,15.70
2022-10-30T00:23:49.911Z,15.80
2022-10-30T00:26:20.971Z,16.00
2022-10-30T00:28:56.235Z,16.00
2022-10-30T00:31:31.296Z,15.80
2022-10-30T00:34:03.387Z,16.00
2022-10-30T00:36:34.293Z,15.90
2022-10-30T00:39:06.371Z,16.00
2022-10-30T00:41:37.172Z,15.80
2022-10-30T00:44:37.552Z,15.80
2022-10-30T00:47:15.837Z,15.70
2022-10-30T00:49:55.010Z,15.50
2022-10-30T00:52:27.061Z,15.70
2022-10-30T00:55:02.555Z,15.60
2022-10-30T00:57:33.179Z,15.50
2022-10-30T01:00:04.996Z,15.80
2022-10-30T01:02:38.155Z,15.60
2022-10-30T01:07:40.336Z,15.70
2022-10-30T01:10:14.285Z,15.80
2022-10-30T01:12:50.057Z,15.80
2022-10-30T01:15:22.496Z,16.00
2022-10-30T01:18:28.948Z,16.00
2022-10-30T01:21:20.360Z,15.90
2022-10-30T01:24:10.380Z,15.90
2022-10-30T01:26:48.755Z,15.90
2022-10-30T01:29:40.475Z,16.10
2022-10-30T01:32:31.448Z,16.10
2022-10-30T01:35:13.497Z,16.10
2022-10-30T01:37:53.413Z,16.60
2022-10-30T01:40:26.898Z,16.60
2022-10-30T01:42:59.760Z,16.50
2022-10-30T01:45:55.623Z,16.40
2022-10-30T01:48:51.098Z,16.40
2022-10-30T01:51:37.283Z,16.30
2022-10-30T01:54:17.974Z,16.10
2022-10-30T01:57:02.280Z,16.20
2022-10-30T01:59:38.907Z,16.10
2022-10-30T02:02:10.693Z,16.30
2022-10-30T02:04:42.369Z,16.10
2022-10-30T02:07:18.828Z,16.20
2022-10-30T02:09:54.700Z,16.30
2022-10-30T02:12:28.143Z,16.40
2022-10-30T02:15:02.005Z,16.40
2022-10-30T02:17:32.502Z,16.30
2022-10-30T02:20:03.196Z,16.10
2022-10-30T02:22:36.311Z,16.30
2022-10-30T02:25:07.090Z,16.40
2022-10-30T02:27:37.728Z,16.30
2022-10-30T02:30:09.777Z,16.20
2022-10-30T02:32:40.028Z,16.20
2022-10-30T02:35:10.751Z,16.20
2022-10-30T02:37:43.295Z,16.10
2022-10-30T02:40:16.010Z,16.00
2022-10-30T02:42:46.017Z,16.00
2022-10-30T02:45:17.356Z,15.90
2022-10-30T02:47:47.520Z,15.90
2022-10-30T02:50:18.597Z,15.80
2022-10-30T02:52:51.259Z,15.90
2022-10-30T02:55:21.943Z,15.80
2022-10-30T02:57:52.098Z,15.80
2022-10-30T03:00:22.989Z,15.80
2022-10-30T03:02:58.049Z,15.70
2022-10-30T03:05:29.272Z,15.70
2022-10-30T03:08:03.280Z,15.70
2022-10-30T03:10:33.912Z,15.60
2022-10-30T03:13:03.896Z,15.60
2022-10-30T03:15:35.649Z,15.50
2022-10-30T03:18:05.596Z,15.50
2022-10-30T03:20:42.107Z,15.40
2022-10-30T03:23:14.668Z,15.30
2022-10-30T03:25:45.065Z,15.30
2022-10-30T03:28:14.976Z,15.20
2022-10-30T03:30:45.267Z,15.20
2022-10-30T03:33:15.286Z,15.10
2022-10-30T03:35:47.091Z,15.10
2022-10-30T03:38:19.684Z,15.00
2022-10-30T03:40:50.305Z,15.00
2022-10-30T03:43:20.332Z,15.10
2022-10-30T03:45:52.366Z,15.10
2022-10-30T03:48:25.043Z,15.10
2022-10-30T03:50:56.551Z,15.10
2022-10-30T03:53:29.816Z,15.00
2022-10-30T03:56:05.423Z,14.90
2022-10-30T03:58:55.722Z,14.90
2022-10-30T04:01:28.141Z,14.80
2022-10-30T04:04:00.284Z,14.60
2022-10-30T04:06:30.744Z,14.70
2022-10-30T04:09:03.339Z,14.60
2022-10-30T04:11:39.996Z,14.50
2022-10-30T04:14:10.241Z,14.50
2022-10-30T04:16:41.113Z,14.50
2022-10-30T04:19:11.251Z,14.60
2022-10-30T04:21:43.444Z,14.60
2022-10-30T04:24:18.799Z,14.60
2022-10-30T04:26:52.413Z,14.60
2022-10-30T04:29:22.430Z,14.50
2022-10-30T04:31:53.019Z,14.50
2022-10-30T04:34:23.234Z,14.30
2022-10-30T04:36:54.302Z,14.30
2022-10-30T04:39:26.953Z,14.10
2022-10-30T04:42:04.088Z,13.90
2022-10-30T04:44:36.868Z,13.80
2022-10-30T04:47:07.829Z,13.60
2022-10-30T04:49:37.747Z,13.60
2022-10-30T04:52:08.183Z,13.50
2022-10-30T04:54:40.735Z,13.30
2022-10-30T04:57:11.813Z,13.20
2022-10-30T04:59:44.065Z,13.20
2022-10-30T05:02:14.762Z,13.10
2022-10-30T05:04:45.228Z,12.90
2022-10-30T05:07:15.596Z,12.60
2022-10-30T05:09:48.943Z,12.50
2022-10-30T05:12:19.618Z,12.50
2022-10-30T05:14:56.337Z,12.40
2022-10-30T05:17:26.538Z,12.20
2022-10-30T05:19:57.382Z,12.10
2022-10-30T05:22:27.272Z,12.10
2022-10-30T05:25:00.636Z,12.20
2022-10-30T05:27:30.509Z,12.20
2022-10-30T05:30:00.839Z,12.20
2022-10-30T05:32:30.884Z,12.10
2022-10-30T05:35:01.918Z,12.00
2022-10-30T05:37:32.146Z,12.10
2022-10-30T05:40:05.032Z,12.10
2022-10-30T05:42:35.412Z,12.20
2022-10-30T05:45:09.130Z,12.20
2022-10-30T05:47:39.427Z,12.20
2022-10-30T05:50:11.932Z,12.10
2022-10-30T05:52:49.467Z,11.90
2022-10-30T05:55:22.924Z,11.70
2022-10-30T05:58:09.734Z,11.70
2022-10-30T06:00:44.736Z,11.60
2022-10-30T06:03:19.229Z,11.50
2022-10-30T06:05:50.602Z,11.30
2022-10-30T06:08:21.486Z,11.20
2022-10-30T06:10:57.840Z,11.10
2022-10-30T06:13:37.625Z,11.00
2022-10-30T06:16:13.242Z,10.90
2022-10-30T06:19:03.378Z,11.00
2022-10-30T06:21:35.495Z,10.80
2022-10-30T06:24:17.468Z,10.70
2022-10-30T06:27:09.829Z,10.70
2022-10-30T06:29:39.769Z,10.60
2022-10-30T06:32:09.912Z,10.70
2022-10-30T06:34:40.190Z,10.60
2022-10-30T06:37:11.154Z,10.70
2022-10-30T06:39:42.011Z,10.70
2022-10-30T06:42:55.373Z,10.80
2022-10-30T06:45:32.390Z,10.80
2022-10-30T06:48:03.325Z,10.60
2022-10-30T06:50:41.630Z,10.40
2022-10-30T06:53:11.682Z,10.50
2022-10-30T06:55:42.891Z,10.50
2022-10-30T06:58:53.560Z,10.10
2022-10-30T07:01:37.492Z,10.30
2022-10-30T07:04:22.120Z,10.30
2022-10-30T07:06:52.751Z,10.50
2022-10-30T07:09:24.522Z,10.60
2022-10-30T07:11:56.945Z,10.80
2022-10-30T07:14:32.816Z,10.70
2022-10-30T07:17:14.176Z,10.90
2022-10-30T07:19:47.455Z,11.20
2022-10-30T07:22:20.210Z,11.30
2022-10-30T07:24:54.650Z,11.50
2022-10-30T07:27:45.691Z,11.60
2022-10-30T07:30:37.306Z,11.80
2022-10-30T07:33:22.226Z,12.00
2022-10-30T07:36:03.626Z,12.10
2022-10-30T07:38:54.550Z,12.30
2022-10-30T07:41:49.927Z,12.50
2022-10-30T07:44:58.543Z,12.80
2022-10-30T07:47:42.611Z,13.10
2022-10-30T07:50:27.941Z,13.30
2022-10-30T07:52:58.678Z,13.70
2022-10-30T07:55:31.604Z,14.00
2022-10-30T07:58:21.869Z,14.20
2022-10-30T08:01:18.642Z,14.50
2022-10-30T08:03:51.316Z,14.70
2022-10-30T08:06:30.518Z,14.90
2022-10-30T08:09:00.661Z,15.10
2022-10-30T08:11:31.824Z,15.20
2022-10-30T08:14:05.542Z,15.40
2022-10-30T08:16:37.245Z,15.50
2022-10-30T08:19:09.875Z,15.60
2022-10-30T08:21:40.233Z,15.80
2022-10-30T08:24:14.677Z,15.90
2022-10-30T08:26:49.264Z,15.90
2022-10-30T08:29:24.675Z,16.00
2022-10-30T08:31:56.376Z,15.90
2022-10-30T08:34:34.660Z,16.00
2022-10-30T08:37:13.358Z,16.10
2022-10-30T08:39:49.004Z,16.20
2022-10-30T08:42:38.766Z,16.30
2022-10-30T08:45:13.957Z,16.40
2022-10-30T08:48:02.322Z,16.50
2022-10-30T08:50:37.467Z,16.60
2022-10-30T08:53:10.660Z,16.60
2022-10-30T08:55:42.002Z,16.70
2022-10-30T08:58:22.546Z,16.70
2022-10-30T09:00:58.631Z,16.80
2022-10-30T09:03:54.981Z,16.80
2022-10-30T09:07:10.396Z,16.90
2022-10-30T09:10:12.025Z,17.00
2022-10-30T09:12:49.100Z,17.00
2022-10-30T09:15:19.968Z,17.10
2022-10-30T09:18:02.017Z,17.10
2022-10-30T09:20:37.221Z,17.10
2022-10-30T09:23:09.880Z,17.20
2022-10-30T09:25:40.778Z,17.00
2022-10-30T09:28:36.769Z,17.10
2022-10-30T09:31:50.115Z,17.20
2022-10-30T09:34:23.085Z,17.20
2022-10-30T09:37:07.892Z,17.30
2022-10-30T09:39:43.291Z,17.40
2022-10-30T09:42:43.259Z,17.60
2022-10-30T09:45:47.697Z,17.80
2022-10-30T09:48:41.499Z,17.90
2022-10-30T09:51:39.458Z,18.00
2022-10-30T09:54:35.610Z,18.00
2022-10-30T09:57:26.705Z,18.30
2022-10-30T10:00:10.643Z,18.40
2022-10-30T10:02:59.616Z,18.50
2022-10-30T10:05:45.899Z,18.60
2022-10-30T10:08:40.768Z,18.60
2022-10-30T10:11:35.728Z,18.70
2022-10-30T10:14:12.625Z,18.80
2022-10-30T10:16:44.801Z,19.00
2022-10-30T10:19:23.431Z,18.90
2022-10-30T10:21:59.222Z,19.10
2022-10-30T10:24:33.151Z,19.20
2022-10-30T10:27:13.818Z,19.20
2022-10-30T10:30:01.688Z,19.20
2022-10-30T10:32:52.908Z,19.10
2022-10-30T10:35:52.196Z,19.00
2022-10-30T10:38:38.004Z,19.10
2022-10-30T10:41:19.681Z,18.90
2022-10-30T10:44:18.180Z,19.00
2022-10-30T10:47:08.025Z,19.10
2022-10-30T10:49:56.738Z,19.10
2022-10-30T10:52:41.088Z,19.30
2022-10-30T10:55:21.769Z,19.50
2022-10-30T10:57:52.636Z,19.40
2022-10-30T11:00:26.506Z,19.40
2022-10-30T11:03:08.500Z,19.50
2022-10-30T11:05:45.449Z,19.40
2022-10-30T11:08:22.121Z,19.40
2022-10-30T11:11:01.209Z,19.30
2022-10-30T11:13:33.525Z,19.30
2022-10-30T11:16:14.555Z,19.40
2022-10-30T11:18:49.946Z,19.40
2022-10-30T11:21:32.593Z,19.30
2022-10-30T11:24:06.453Z,19.40
2022-10-30T11:26:38.082Z,19.40
2022-10-30T11:32:47.737Z,19.40
2022-10-30T11:35:22.154Z,19.40
2022-10-30T11:37:53.827Z,19.40
2022-10-30T11:40:29.566Z,19.60
2022-10-30T11:43:02.869Z,19.60
2022-10-30T11:45:36.428Z,19.50
2022-10-30T11:48:14.978Z,19.50
2022-10-30T11:50:53.794Z,19.40
2022-10-30T11:53:30.747Z,19.40
2022-10-30T11:56:01.890Z,19.60
2022-10-30T11:58:35.789Z,19.70
2022-10-30T12:01:09.450Z,19.80
2022-10-30T12:03:48.654Z,19.80
2022-10-30T12:06:29.554Z,19.60
2022-10-30T12:09:04.451Z,19.60
2022-10-30T12:11:47.696Z,19.90
2022-10-30T12:14:22.602Z,19.90
2022-10-30T12:17:00.641Z,19.90
2022-10-30T12:19:33.397Z,20.00
2022-10-30T12:22:09.874Z,20.00
2022-10-30T12:24:48.984Z,20.10
2022-10-30T12:27:22.577Z,19.90
2022-10-30T12:30:08.355Z,19.90
2022-10-30T12:32:49.590Z,20.10
2022-10-30T12:35:30.259Z,20.10
2022-10-30T12:38:05.134Z,20.00
2022-10-30T12:40:44.682Z,20.00
2022-10-30T12:43:20.343Z,20.00
2022-10-30T12:46:24.201Z,20.00
2022-10-30T12:49:17.005Z,20.10
2022-10-30T12:51:54.322Z,20.00
2022-10-30T12:54:35.278Z,19.80
2022-10-30T12:57:12.437Z,19.70
2022-10-30T12:59:54.806Z,19.80
2022-10-30T13:02:38.784Z,19.90
2022-10-30T13:05:21.276Z,20.00
2022-10-30T13:08:05.298Z,20.10
2022-10-30T13:10:44.785Z,20.20
2022-10-30T13:13:19.501Z,20.30
2022-10-30T13:15:57.972Z,20.30
2022-10-30T13:18:31.500Z,20.10
2022-10-30T13:21:25.159Z,19.90
2022-10-30T13:23:58.919Z,20.00
2022-10-30T13:26:39.170Z,20.00
2022-10-30T13:29:18.764Z,20.10
2022-10-30T13:32:00.582Z,20.20
2022-10-30T13:34:45.282Z,20.30
2022-10-30T13:37:24.054Z,20.40
2022-10-30T13:40:19.309Z,20.40
2022-10-30T13:43:08.117Z,20.50
2022-10-30T13:46:05.920Z,20.30
2022-10-30T13:48:59.406Z,20.20
2022-10-30T13:51:44.500Z,20.30
2022-10-30T13:54:22.277Z,20.20
2022-10-30T13:56:55.458Z,20.00
2022-10-30T13:59:51.008Z,19.70
2022-10-30T14:02:34.577Z,19.30
2022-10-30T14:05:15.508Z,19.10
2022-10-30T14:07:53.794Z,19.00
2022-10-30T14:10:34.913Z,18.80
2022-10-30T14:13:18.261Z,18.60
2022-10-30T14:15:51.613Z,18.40
2022-10-30T14:18:31.073Z,18.20
2022-10-30T14:21:22.720Z,18.10
2022-10-30T14:24:05.985Z,18.30
2022-10-30T14:26:36.611Z,18.10
2022-10-30T14:29:53.333Z,17.90
2022-10-30T14:32:45.247Z,17.80
2022-10-30T14:35:41.056Z,17.90
2022-10-30T14:38:29.570Z,17.80
2022-10-30T14:41:28.412Z,17.70
2022-10-30T14:44:31.951Z,17.70
2022-10-30T14:47:15.817Z,17.60
2022-10-30T14:49:50.733Z,17.60
2022-10-30T14:52:31.593Z,17.80
2022-10-30T14:55:18.847Z,17.70
2022-10-30T14:57:54.206Z,17.80
2022-10-30T15:00:46.283Z,17.60
2022-10-30T15:03:39.337Z,17.60
2022-10-30T15:06:25.047Z,17.70
2022-10-30T15:09:06.449Z,17.60
2022-10-30T15:12:12.526Z,17.60
2022-10-30T15:14:53.993Z,17.50
2022-10-30T15:17:30.585Z,17.30
2022-10-30T15:20:03.169Z,17.30
2022-10-30T15:22:36.919Z,17.50
2022-10-30T15:25:09.163Z,17.40
2022-10-30T15:27:46.068Z,17.20
2022-10-30T15:30:20.534Z,17.10
2022-10-30T15:32:51.095Z,17.00
2022-10-30T15:35:23.251Z,17.00
2022-10-30T15:38:04.084Z,17.00
2022-10-30T15:40:37.017Z,17.00
2022-10-30T15:43:09.917Z,16.90
2022-10-30T15:45:43.194Z,16.80
2022-10-30T15:48:24.733Z,16.70
2022-10-30T15:51:03.136Z,16.80
2022-10-30T15:53:43.025Z,16.70
2022-10-30T15:56:20.269Z,16.70
2022-10-30T15:58:54.482Z,16.80
2022-10-30T16:01:29.944Z,16.90
2022-10-30T16:04:00.070Z,17.10
2022-10-30T16:06:31.854Z,17.20
2022-10-30T16:09:07.225Z,17.20
2022-10-30T16:11:39.659Z,17.10
2022-10-30T16:14:13.740Z,17.00
2022-10-30T16:16:46.959Z,16.90
2022-10-30T16:19:28.040Z,16.90
2022-10-30T16:22:01.870Z,17.00
2022-10-30T16:24:37.716Z,16.80
2022-10-30T16:27:09.783Z,16.70
2022-10-30T16:29:40.562Z,16.60
2022-10-30T16:32:14.932Z,16.40
2022-10-30T16:34:47.431Z,16.40
2022-10-30T16:37:21.951Z,16.70
2022-10-30T16:39:56.339Z,16.80
2022-10-30T16:42:28.502Z,16.80
2022-10-30T16:45:44.149Z,16.80
2022-10-30T16:48:20.831Z,16.80
2022-10-30T16:50:52.363Z,16.90
2022-10-30T16:53:25.978Z,16.80
2022-10-30T16:56:00.820Z,16.70
2022-10-30T16:58:33.235Z,16.70
2022-10-30T17:01:09.815Z,16.70
2022-10-30T17:03:42.577Z,16.80
2022-10-30T17:06:29.980Z,16.80
2022-10-30T17:09:02.585Z,16.80
2022-10-30T17:11:44.190Z,16.70
2022-10-30T17:14:22.174Z,16.70
2022-10-30T17:16:57.886Z,16.70
2022-10-30T17:19:50.206Z,16.60
2022-10-30T17:22:23.660Z,16.50
2022-10-30T17:24:53.791Z,16.50
2022-10-30T17:27:47.145Z,16.50
2022-10-30T17:30:38.280Z,16.60
2022-10-30T17:33:35.249Z,16.60
2022-10-30T17:36:07.373Z,16.60
2022-10-30T17:38:37.397Z,16.60
2022-10-30T17:41:10.085Z,16.60
2022-10-30T17:44:13.260Z,16.60
2022-10-30T17:46:44.216Z,16.60
2022-10-30T17:49:26.539Z,16.60
2022-10-30T17:51:57.572Z,16.60
2022-10-30T17:54:27.875Z,16.50
2022-10-30T17:56:58.373Z,16.60
2022-10-30T17:59:31.111Z,16.60
2022-10-30T18:02:01.533Z,16.60
2022-10-30T18:04:31.752Z,16.60
2022-10-30T18:07:01.729Z,16.50
2022-10-30T18:09:31.685Z,16.40
2022-10-30T18:12:02.365Z,16.30
2022-10-30T18:14:35.263Z,16.20
2022-10-30T18:17:05.934Z,16.30
2022-10-30T18:19:36.052Z,16.20
2022-10-30T18:22:06.544Z,16.10
2022-10-30T18:24:36.785Z,16.00
2022-10-30T18:27:07.489Z,16.00
2022-10-30T18:29:40.154Z,15.90
2022-10-30T18:32:13.248Z,15.80
2022-10-30T18:34:43.282Z,15.80
2022-10-30T18:37:13.782Z,15.70
2022-10-30T18:39:43.968Z,15.60
2022-10-30T18:42:14.669Z,15.80
2022-10-30T18:44:47.457Z,15.80
2022-10-30T18:47:18.345Z,15.80
2022-10-30T18:49:48.426Z,15.70
2022-10-30T18:52:18.682Z,15.80
2022-10-30T18:54:48.831Z,15.70
2022-10-30T18:57:19.508Z,15.70
2022-10-30T18:59:52.308Z,15.80
2022-10-30T19:02:26.422Z,16.00
2022-10-30T19:04:56.665Z,16.20
2022-10-30T19:07:27.408Z,16.30
2022-10-30T19:09:59.589Z,16.40
2022-10-30T19:12:30.101Z,16.40
2022-10-30T19:15:03.359Z,16.50
2022-10-30T19:17:33.543Z,16.40
2022-10-30T19:20:03.724Z,16.30
2022-10-30T19:22:34.473Z,16.30
2022-10-30T19:25:05.078Z,16.40
2022-10-30T19:27:36.200Z,16.30
2022-10-30T19:30:10.250Z,16.20
2022-10-30T19:32:40.695Z,16.20
2022-10-30T19:35:11.940Z,16.10
2022-10-30T19:37:43.442Z,16.10
2022-10-30T19:40:21.004Z,16.20
2022-10-30T19:42:51.708Z,16.20
2022-10-30T19:45:26.642Z,16.10
2022-10-30T19:47:58.596Z,16.10
2022-10-30T19:50:31.177Z,16.00
2022-10-30T19:53:03.305Z,16.00
2022-10-30T19:55:34.936Z,16.00
2022-10-30T19:58:07.342Z,16.00
2022-10-30T20:00:43.580Z,16.10
2022-10-30T20:03:15.914Z,16.00
2022-10-30T20:05:49.576Z,15.80
2022-10-30T20:08:22.629Z,15.80
2022-10-30T20:10:55.133Z,15.90
2022-10-30T20:13:26.286Z,15.90
2022-10-30T20:16:03.694Z,15.90
2022-10-30T20:18:36.939Z,15.90
2022-10-30T20:21:11.024Z,15.90
2022-10-30T20:23:44.143Z,15.70
2022-10-30T20:26:26.406Z,15.60
2022-10-30T20:28:57.284Z,15.50
2022-10-30T20:31:30.364Z,15.40
2022-10-30T20:34:06.698Z,15.20
2022-10-30T20:36:38.560Z,15.20
2022-10-30T20:39:08.996Z,15.10
2022-10-30T20:41:43.178Z,15.00
2022-10-30T20:44:15.334Z,15.00
2022-10-30T20:46:48.384Z,15.00
2022-10-30T20:49:18.667Z,15.20
2022-10-30T20:51:50.345Z,15.10
2022-10-30T20:54:21.071Z,15.10
2022-10-30T20:56:51.749Z,14.90
2022-10-30T20:59:22.003Z,14.80
2022-10-30T21:01:56.345Z,14.70
2022-10-30T21:04:26.469Z,14.70
2022-10-30T21:06:57.181Z,14.70
2022-10-30T21:09:27.380Z,14.60
2022-10-30T21:11:58.155Z,14.60
2022-10-30T21:14:28.353Z,14.40
2022-10-30T21:17:02.057Z,14.30
2022-10-30T21:19:32.594Z,14.10
2022-10-30T21:22:02.920Z,13.90
2022-10-30T21:24:33.028Z,13.80
2022-10-30T21:27:06.019Z,13.70
2022-10-30T21:29:36.296Z,13.70
2022-10-30T21:32:09.787Z,13.50
2022-10-30T21:34:39.831Z,13.40
2022-10-30T21:37:15.080Z,13.30
2022-10-30T21:39:45.254Z,13.20
2022-10-30T21:42:15.726Z,13.10
2022-10-30T21:44:45.899Z,13.00
2022-10-30T21:47:20.118Z,12.80
2022-10-30T21:49:51.331Z,12.60
2022-10-30T21:52:21.804Z,12.40
2022-10-30T21:54:58.591Z,12.30
2022-10-30T21:57:32.569Z,12.10
2022-10-30T22:00:05.721Z,12.10
2022-10-30T22:02:44.526Z,11.90
2022-10-30T22:05:14.608Z,11.70
2022-10-30T22:07:45.276Z,11.60
2022-10-30T22:10:15.461Z,11.50
2022-10-30T22:12:46.119Z,11.50
2022-10-30T22:15:16.141Z,11.30
2022-10-30T22:17:49.335Z,11.10
2022-10-30T22:20:23.756Z,11.00
2022-10-30T22:22:57.137Z,10.90
2022-10-30T22:25:27.627Z,10.90
2022-10-30T22:27:59.347Z,10.80
2022-10-30T22:30:30.634Z,10.70
2022-10-30T22:33:04.399Z,10.70
2022-10-30T22:35:34.324Z,10.60
2022-10-30T22:38:05.606Z,10.50
2022-10-30T22:40:37.467Z,10.50
2022-10-30T22:43:08.757Z,10.60
2022-10-30T22:45:39.019Z,10.20
2022-10-30T22:48:12.490Z,10.10
2022-10-30T22:50:42.576Z,10.00
2022-10-30T22:53:13.842Z,10.00
2022-10-30T22:55:44.101Z,9.90
2022-10-30T22:58:15.228Z,10.00
2022-10-30T23:00:45.738Z,9.90
2022-10-30T23:03:19.184Z,9.90
2022-10-30T23:05:51.985Z,9.90
2022-10-30T23:08:25.109Z,9.80
2022-10-30T23:10:56.170Z,9.80
2022-10-30T23:13:28.309Z,9.80
2022-10-30T23:16:03.252Z,9.70
2022-10-30T23:18:38.786Z,9.70
2022-10-30T23:21:13.399Z,9.40
2022-10-30T23:23:46.050Z,9.20
2022-10-30T23:26:19.748Z,9.10
2022-10-30T23:28:51.197Z,9.10
2022-10-30T23:31:27.587Z,9.50
2022-10-30T23:34:02.340Z,9.40
2022-10-30T23:36:33.607Z,9.40
2022-10-30T23:39:05.116Z,9.60
2022-10-30T23:41:37.179Z,9.30
2022-10-30T23:44:09.550Z,9.30
2022-10-30T23:46:40.939Z,9.30
2022-10-30T23:49:14.128Z,9.30
2022-10-30T23:51:45.554Z,9.30
2022-10-30T23:54:15.667Z,9.20
2022-10-30T23:56:48.761Z,9.30
2022-10-30T23:59:18.706Z,9.30
